sensor_id;sensor_type;location;lat;lon;timestamp;pressure;altitude;pressure_sealevel;temperature;humidity
20228;BME280;12195;55.790;37.572;2024-01-15T00:01:56;97741.89;;;-6.37;79.88
20228;BME280;12195;55.790;37.572;2024-01-15T00:04:29;97733.44;;;-6.39;79.89
20228;BME280;12195;55.790;37.572;2024-01-15T00:07:02;97741.01;;;-6.36;79.99
20228;BME280;12195;55.790;37.572;2024-01-15T00:09:35;97737.52;;;-6.32;80.02
20228;BME280;12195;55.790;37.572;2024-01-15T00:12:08;97736.65;;;-6.29;79.92
20228;BME280;12195;55.790;37.572;2024-01-15T00:14:41;97728.93;;;-6.28;79.94
20228;BME280;12195;55.790;37.572;2024-01-15T00:17:13;97724.73;;;-6.30;79.85
20228;BME280;12195;55.790;37.572;2024-01-15T00:19:46;97729.78;;;-6.27;79.94
20228;BME280;12195;55.790;37.572;2024-01-15T00:22:18;97728.11;;;-6.28;79.89
20228;BME280;12195;55.790;37.572;2024-01-15T00:24:51;97721.34;;;-6.29;79.87
20228;BME280;12195;55.790;37.572;2024-01-15T00:27:23;97714.47;;;-6.27;80.00
20228;BME280;12195;55.790;37.572;2024-01-15T00:29:56;97724.69;;;-6.27;79.99
20228;BME280;12195;55.790;37.572;2024-01-15T00:32:29;97716.91;;;-6.21;80.11
20228;BME280;12195;55.790;37.572;2024-01-15T00:35:02;97710.11;;;-6.22;80.05
20228;BME280;12195;55.790;37.572;2024-01-15T00:37:34;97716.09;;;-6.23;80.00
20228;BME280;12195;55.790;37.572;2024-01-15T00:40:07;97709.28;;;-6.23;80.04
20228;BME280;12195;55.790;37.572;2024-01-15T00:42:41;97705.83;;;-6.20;80.07
20228;BME280;12195;55.790;37.572;2024-01-15T00:45:14;97714.36;;;-6.21;80.01
20228;BME280;12195;55.790;37.572;2024-01-15T00:47:47;97709.17;;;-6.18;80.12
20228;BME280;12195;55.790;37.572;2024-01-15T00:50:19;97700.63;;;-6.17;80.11
20228;BME280;12195;55.790;37.572;2024-01-15T00:52:52;97698.08;;;-6.17;80.07
20228;BME280;12195;55.790;37.572;2024-01-15T00:55:24;97694.70;;;-6.18;80.05
20228;BME280;12195;55.790;37.572;2024-01-15T00:57:57;97698.14;;;-6.19;80.03
20228;BME280;12195;55.790;37.572;2024-01-15T01:00:29;97699.05;;;-6.21;79.94
20228;BME280;12195;55.790;37.572;2024-01-15T01:03:02;97690.51;;;-6.20;79.97
20228;BME280;12195;55.790;37.572;2024-01-15T01:05:35;97698.95;;;-6.18;80.01
20228;BME280;12195;55.790;37.572;2024-01-15T01:08:07;97686.16;;;-6.17;80.04
20228;BME280;12195;55.790;37.572;2024-01-15T01:10:40;97681.06;;;-6.17;80.05
20228;BME280;12195;55.790;37.572;2024-01-15T01:13:14;97682.73;;;-6.16;80.05
20228;BME280;12195;55.790;37.572;2024-01-15T01:15:46;97677.59;;;-6.14;80.07
20228;BME280;12195;55.790;37.572;2024-01-15T01:18:19;97673.41;;;-6.17;80.01
20228;BME280;12195;55.790;37.572;2024-01-15T01:20:51;97669.16;;;-6.16;79.97
20228;BME280;12195;55.790;37.572;2024-01-15T01:23:24;97664.84;;;-6.14;80.08
20228;BME280;12195;55.790;37.572;2024-01-15T01:25:58;97660.55;;;-6.12;80.09
20228;BME280;12195;55.790;37.572;2024-01-15T01:28:30;97661.98;;;-6.01;80.34
20228;BME280;12195;55.790;37.572;2024-01-15T01:31:03;97657.03;;;-6.07;80.03
20228;BME280;12195;55.790;37.572;2024-01-15T01:33:35;97656.97;;;-6.05;79.98
20228;BME280;12195;55.790;37.572;2024-01-15T01:36:11;97649.30;;;-6.05;79.98
20228;BME280;12195;55.790;37.572;2024-01-15T01:38:43;97647.58;;;-6.03;80.06
20228;BME280;12195;55.790;37.572;2024-01-15T01:41:18;97650.12;;;-6.03;80.05
20228;BME280;12195;55.790;37.572;2024-01-15T01:43:51;97646.72;;;-6.04;79.99
20228;BME280;12195;55.790;37.572;2024-01-15T01:46:24;97646.75;;;-6.05;79.99
20228;BME280;12195;55.790;37.572;2024-01-15T01:48:58;97645.05;;;-6.05;80.06
20228;BME280;12195;55.790;37.572;2024-01-15T01:51:34;97639.91;;;-6.03;80.10
20228;BME280;12195;55.790;37.572;2024-01-15T01:54:09;97638.15;;;-6.01;80.18
20228;BME280;12195;55.790;37.572;2024-01-15T01:56:44;97628.73;;;-5.97;80.27
20228;BME280;12195;55.790;37.572;2024-01-15T01:59:17;97630.30;;;-5.92;80.33
20228;BME280;12195;55.790;37.572;2024-01-15T02:01:50;97626.73;;;-5.87;80.42
20228;BME280;12195;55.790;37.572;2024-01-15T02:04:24;97624.97;;;-5.83;80.44
20228;BME280;12195;55.790;37.572;2024-01-15T02:06:58;97628.25;;;-5.80;80.42
20228;BME280;12195;55.790;37.572;2024-01-15T02:09:31;97629.06;;;-5.77;80.39
20228;BME280;12195;55.790;37.572;2024-01-15T02:12:04;97623.86;;;-5.75;80.46
20228;BME280;12195;55.790;37.572;2024-01-15T02:14:37;97621.20;;;-5.70;80.50
20228;BME280;12195;55.790;37.572;2024-01-15T02:17:10;97599.95;;;-5.72;80.61
20228;BME280;12195;55.790;37.572;2024-01-15T02:19:42;97599.95;;;-5.72;80.61
20228;BME280;12195;55.790;37.572;2024-01-15T02:22:16;97622.58;;;-5.57;80.76
20228;BME280;12195;55.790;37.572;2024-01-15T02:24:49;97617.37;;;-5.52;80.69
20228;BME280;12195;55.790;37.572;2024-01-15T02:27:21;97618.05;;;-5.46;80.64
20228;BME280;12195;55.790;37.572;2024-01-15T02:29:54;97618.77;;;-5.41;80.71
20228;BME280;12195;55.790;37.572;2024-01-15T02:32:27;97621.25;;;-5.38;80.73
20228;BME280;12195;55.790;37.572;2024-01-15T02:35:00;97620.36;;;-5.37;80.75
20228;BME280;12195;55.790;37.572;2024-01-15T02:37:33;97621.22;;;-5.36;80.86
20228;BME280;12195;55.790;37.572;2024-01-15T02:40:06;97612.59;;;-5.32;80.92
20228;BME280;12195;55.790;37.572;2024-01-15T02:42:39;97617.53;;;-5.26;80.83
20228;BME280;12195;55.790;37.572;2024-01-15T02:45:11;97616.61;;;-5.24;80.82
20228;BME280;12195;55.790;37.572;2024-01-15T02:47:45;97618.17;;;-5.18;80.80
20228;BME280;12195;55.790;37.572;2024-01-15T02:50:18;97607.91;;;-5.17;80.82
20228;BME280;12195;55.790;37.572;2024-01-15T02:52:50;97613.80;;;-5.15;80.91
20228;BME280;12195;55.790;37.572;2024-01-15T02:55:23;97608.66;;;-5.13;80.90
20228;BME280;12195;55.790;37.572;2024-01-15T02:57:55;97611.92;;;-5.08;80.94
20228;BME280;12195;55.790;37.572;2024-01-15T03:00:28;97612.70;;;-5.05;80.94
20228;BME280;12195;55.790;37.572;2024-01-15T03:03:01;97611.73;;;-5.01;80.94
20228;BME280;12195;55.790;37.572;2024-01-15T03:05:33;97609.99;;;-5.00;80.95
20228;BME280;12195;55.790;37.572;2024-01-15T03:08:06;97601.50;;;-5.01;80.96
20228;BME280;12195;55.790;37.572;2024-01-15T03:10:39;97603.88;;;-4.95;81.06
20228;BME280;12195;55.790;37.572;2024-01-15T03:13:11;97602.20;;;-4.96;81.09
20228;BME280;12195;55.790;37.572;2024-01-15T03:15:44;97599.57;;;-4.93;81.10
20228;BME280;12195;55.790;37.572;2024-01-15T03:18:17;97597.76;;;-4.89;81.11
20228;BME280;12195;55.790;37.572;2024-01-15T03:20:50;97592.41;;;-4.82;81.15
20228;BME280;12195;55.790;37.572;2024-01-15T03:23:23;97603.20;;;-4.71;81.33
20228;BME280;12195;55.790;37.572;2024-01-15T03:25:55;97596.56;;;-4.78;80.95
20228;BME280;12195;55.790;37.572;2024-01-15T03:28:28;97592.30;;;-4.77;81.06
20228;BME280;12195;55.790;37.572;2024-01-15T03:31:02;97595.75;;;-4.78;81.18
20228;BME280;12195;55.790;37.572;2024-01-15T03:33:35;97588.73;;;-4.72;81.17
20228;BME280;12195;55.790;37.572;2024-01-15T03:36:08;97585.28;;;-4.71;81.19
20228;BME280;12195;55.790;37.572;2024-01-15T03:38:42;97582.64;;;-4.68;81.17
20228;BME280;12195;55.790;37.572;2024-01-15T03:41:15;97591.02;;;-4.63;81.23
20228;BME280;12195;55.790;37.572;2024-01-15T03:43:48;97579.03;;;-4.61;81.25
20228;BME280;12195;55.790;37.572;2024-01-15T03:46:21;97579.73;;;-4.56;81.27
20228;BME280;12195;55.790;37.572;2024-01-15T03:48:53;97579.69;;;-4.54;81.28
20228;BME280;12195;55.790;37.572;2024-01-15T03:51:27;97580.42;;;-4.51;81.40
20228;BME280;12195;55.790;37.572;2024-01-15T03:54:00;97571.00;;;-4.49;81.45
20228;BME280;12195;55.790;37.572;2024-01-15T03:56:33;97571.69;;;-4.44;81.51
20228;BME280;12195;55.790;37.572;2024-01-15T03:59:06;97569.95;;;-4.43;81.50
20228;BME280;12195;55.790;37.572;2024-01-15T04:01:38;97574.94;;;-4.39;81.55
20228;BME280;12195;55.790;37.572;2024-01-15T04:04:11;97570.80;;;-4.43;81.51
20228;BME280;12195;55.790;37.572;2024-01-15T04:06:46;97571.49;;;-4.38;81.56
20228;BME280;12195;55.790;37.572;2024-01-15T04:09:19;97575.72;;;-4.37;81.56
20228;BME280;12195;55.790;37.572;2024-01-15T04:11:52;97564.50;;;-4.33;81.60
20228;BME280;12195;55.790;37.572;2024-01-15T04:14:27;97560.19;;;-4.31;81.65
20228;BME280;12195;55.790;37.572;2024-01-15T04:17:00;97564.42;;;-4.30;81.65
20228;BME280;12195;55.790;37.572;2024-01-15T04:19:33;97568.60;;;-4.27;81.68
20228;BME280;12195;55.790;37.572;2024-01-15T04:22:06;97572.79;;;-4.25;81.74
20228;BME280;12195;55.790;37.572;2024-01-15T04:24:39;97568.52;;;-4.24;81.71
20228;BME280;12195;55.790;37.572;2024-01-15T04:27:12;97565.91;;;-4.23;81.76
20228;BME280;12195;55.790;37.572;2024-01-15T04:29:46;97564.98;;;-4.20;81.79
20228;BME280;12195;55.790;37.572;2024-01-15T04:32:19;97563.15;;;-4.17;81.86
20228;BME280;12195;55.790;37.572;2024-01-15T04:34:52;97557.16;;;-4.16;81.84
20228;BME280;12195;55.790;37.572;2024-01-15T04:37:26;97557.05;;;-4.13;81.94
20228;BME280;12195;55.790;37.572;2024-01-15T04:39:59;97558.62;;;-4.09;81.92
20228;BME280;12195;55.790;37.572;2024-01-15T04:42:32;97548.16;;;-4.01;82.00
20228;BME280;12195;55.790;37.572;2024-01-15T04:45:05;97552.13;;;-3.93;82.06
20228;BME280;12195;55.790;37.572;2024-01-15T04:47:38;97549.02;;;-4.02;81.89
20228;BME280;12195;55.790;37.572;2024-01-15T04:50:12;97553.16;;;-3.98;81.88
20228;BME280;12195;55.790;37.572;2024-01-15T04:52:46;97554.02;;;-3.98;81.89
20228;BME280;12195;55.790;37.572;2024-01-15T04:55:20;97547.99;;;-3.97;82.00
20228;BME280;12195;55.790;37.572;2024-01-15T04:57:53;97547.90;;;-3.94;82.00
20228;BME280;12195;55.790;37.572;2024-01-15T05:00:26;97548.67;;;-3.92;82.08
20228;BME280;12195;55.790;37.572;2024-01-15T05:02:59;97544.05;;;-3.81;82.22
20228;BME280;12195;55.790;37.572;2024-01-15T05:05:32;97549.27;;;-3.84;82.06
20228;BME280;12195;55.790;37.572;2024-01-15T05:08:06;97545.48;;;-3.72;82.29
20228;BME280;12195;55.790;37.572;2024-01-15T05:10:38;97537.08;;;-3.77;81.94
20228;BME280;12195;55.790;37.572;2024-01-15T05:13:11;97547.29;;;-3.76;81.94
20228;BME280;12195;55.790;37.572;2024-01-15T05:15:44;97540.14;;;-3.66;82.14
20228;BME280;12195;55.790;37.572;2024-01-15T05:18:18;97544.59;;;-3.71;81.91
20228;BME280;12195;55.790;37.572;2024-01-15T05:20:51;97541.22;;;-3.73;81.91
20228;BME280;12195;55.790;37.572;2024-01-15T05:23:25;97548.67;;;-3.66;82.08
20228;BME280;12195;55.790;37.572;2024-01-15T05:25:58;97547.01;;;-3.67;82.03
20228;BME280;12195;55.790;37.572;2024-01-15T05:28:31;97545.22;;;-3.65;82.11
20228;BME280;12195;55.790;37.572;2024-01-15T05:31:04;97542.70;;;-3.66;82.10
20228;BME280;12195;55.790;37.572;2024-01-15T05:33:39;97540.09;;;-3.65;82.16
20228;BME280;12195;55.790;37.572;2024-01-15T05:36:13;97540.86;;;-3.63;82.23
20228;BME280;12195;55.790;37.572;2024-01-15T05:38:46;97543.38;;;-3.61;82.29
20228;BME280;12195;55.790;37.572;2024-01-15T05:41:19;97541.66;;;-3.61;82.30
20228;BME280;12195;55.790;37.572;2024-01-15T05:43:52;97540.30;;;-3.46;82.56
20228;BME280;12195;55.790;37.572;2024-01-15T05:46:25;97535.41;;;-3.52;82.29
20228;BME280;12195;55.790;37.572;2024-01-15T05:48:58;97540.53;;;-3.52;82.32
20228;BME280;12195;55.790;37.572;2024-01-15T05:51:32;97541.25;;;-3.49;82.37
20228;BME280;12195;55.790;37.572;2024-01-15T05:54:05;97544.48;;;-3.44;82.34
20228;BME280;12195;55.790;37.572;2024-01-15T05:56:38;97544.39;;;-3.41;82.38
20228;BME280;12195;55.790;37.572;2024-01-15T05:59:12;97541.78;;;-3.39;82.48
20228;BME280;12195;55.790;37.572;2024-01-15T06:01:46;97545.96;;;-3.37;82.46
20228;BME280;12195;55.790;37.572;2024-01-15T06:04:19;97547.53;;;-3.33;82.50
20228;BME280;12195;55.790;37.572;2024-01-15T06:06:53;97542.17;;;-3.27;82.57
20228;BME280;12195;55.790;37.572;2024-01-15T06:09:25;97541.31;;;-3.26;82.58
20228;BME280;12195;55.790;37.572;2024-01-15T06:11:59;97539.84;;;-3.10;82.74
20228;BME280;12195;55.790;37.572;2024-01-15T06:14:32;97547.83;;;-3.17;82.46
20228;BME280;12195;55.790;37.572;2024-01-15T06:17:05;97545.11;;;-3.13;82.38
20228;BME280;12195;55.790;37.572;2024-01-15T06:19:38;97544.98;;;-3.10;82.50
20228;BME280;12195;55.790;37.572;2024-01-15T06:22:11;97541.92;;;-2.96;82.67
20228;BME280;12195;55.790;37.572;2024-01-15T06:24:43;97541.36;;;-3.04;82.36
20228;BME280;12195;55.790;37.572;2024-01-15T06:27:17;97540.49;;;-3.03;82.48
20228;BME280;12195;55.790;37.572;2024-01-15T06:29:50;97539.64;;;-3.04;82.53
20228;BME280;12195;55.790;37.572;2024-01-15T06:32:24;97545.49;;;-3.00;82.62
20228;BME280;12195;55.790;37.572;2024-01-15T06:34:59;97541.02;;;-2.95;82.71
20228;BME280;12195;55.790;37.572;2024-01-15T06:37:32;97540.97;;;-2.94;82.77
20228;BME280;12195;55.790;37.572;2024-01-15T06:40:06;97542.54;;;-2.90;82.86
20228;BME280;12195;55.790;37.572;2024-01-15T06:42:41;97545.80;;;-2.85;82.97
20228;BME280;12195;55.790;37.572;2024-01-15T06:45:14;97538.81;;;-2.81;82.93
20228;BME280;12195;55.790;37.572;2024-01-15T06:47:47;97541.03;;;-2.72;82.94
20228;BME280;12195;55.790;37.572;2024-01-15T06:50:20;97541.98;;;-2.75;82.95
20228;BME280;12195;55.790;37.572;2024-01-15T06:52:52;97541.03;;;-2.72;83.06
20228;BME280;12195;55.790;37.572;2024-01-15T06:55:25;97552.76;;;-2.65;83.04
20228;BME280;12195;55.790;37.572;2024-01-15T06:58:01;97547.37;;;-2.59;83.07
20228;BME280;12195;55.790;37.572;2024-01-15T07:00:35;97546.37;;;-2.55;83.03
20228;BME280;12195;55.790;37.572;2024-01-15T07:03:08;97551.45;;;-2.54;83.14
20228;BME280;12195;55.790;37.572;2024-01-15T07:05:42;97542.84;;;-2.53;83.23
20228;BME280;12195;55.790;37.572;2024-01-15T07:08:15;97545.31;;;-2.50;83.35
20228;BME280;12195;55.790;37.572;2024-01-15T07:10:48;97534.02;;;-2.46;83.40
20228;BME280;12195;55.790;37.572;2024-01-15T07:13:21;97546.29;;;-2.31;83.48
20228;BME280;12195;55.790;37.572;2024-01-15T07:15:53;97535.28;;;-2.34;83.05
20228;BME280;12195;55.790;37.572;2024-01-15T07:18:26;97539.45;;;-2.32;83.14
20228;BME280;12195;55.790;37.572;2024-01-15T07:21:00;97541.91;;;-2.29;83.20
20228;BME280;12195;55.790;37.572;2024-01-15T07:23:34;97536.61;;;-2.24;83.42
20228;BME280;12195;55.790;37.572;2024-01-15T07:26:07;97532.83;;;-2.16;83.60
20228;BME280;12195;55.790;37.572;2024-01-15T07:28:40;97532.83;;;-2.16;83.60
20228;BME280;12195;55.790;37.572;2024-01-15T07:31:15;97535.70;;;-2.02;83.66
20228;BME280;12195;55.790;37.572;2024-01-15T07:33:48;97543.53;;;-2.05;83.35
20228;BME280;12195;55.790;37.572;2024-01-15T07:36:23;97541.75;;;-2.03;83.39
20228;BME280;12195;55.790;37.572;2024-01-15T07:38:56;97542.39;;;-1.98;83.35
20228;BME280;12195;55.790;37.572;2024-01-15T07:41:32;97528.53;;;-1.94;83.44
20228;BME280;12195;55.790;37.572;2024-01-15T07:44:07;97541.17;;;-1.89;83.41
20228;BME280;12195;55.790;37.572;2024-01-15T07:46:45;97534.14;;;-1.84;83.44
20228;BME280;12195;55.790;37.572;2024-01-15T07:49:20;97530.39;;;-1.77;83.46
20228;BME280;12195;55.790;37.572;2024-01-15T07:51:56;97537.14;;;-1.75;83.57
20228;BME280;12195;55.790;37.572;2024-01-15T07:54:29;97536.00;;;-1.68;83.63
20228;BME280;12195;55.790;37.572;2024-01-15T07:57:07;97538.45;;;-1.65;83.52
20228;BME280;12195;55.790;37.572;2024-01-15T07:59:42;97537.44;;;-1.61;83.61
20228;BME280;12195;55.790;37.572;2024-01-15T08:02:15;97535.44;;;-1.54;83.58
20228;BME280;12195;55.790;37.572;2024-01-15T08:04:48;97541.56;;;-1.37;83.55
20228;BME280;12195;55.790;37.572;2024-01-15T08:07:23;97530.75;;;-1.45;83.49
20228;BME280;12195;55.790;37.572;2024-01-15T08:09:56;97535.50;;;-1.36;83.43
20228;BME280;12195;55.790;37.572;2024-01-15T08:12:32;97534.34;;;-1.29;83.84
20228;BME280;12195;55.790;37.572;2024-01-15T08:15:06;97527.71;;;-1.14;83.92
20228;BME280;12195;55.790;37.572;2024-01-15T08:17:40;97532.11;;;-0.98;84.04
20228;BME280;12195;55.790;37.572;2024-01-15T08:20:16;97536.53;;;-0.81;84.22
20228;BME280;12195;55.790;37.572;2024-01-15T08:22:49;97529.85;;;-0.67;84.30
20228;BME280;12195;55.790;37.572;2024-01-15T08:25:26;97523.09;;;-0.51;83.91
20228;BME280;12195;55.790;37.572;2024-01-15T08:28:00;97528.44;;;-0.37;83.95
20228;BME280;12195;55.790;37.572;2024-01-15T08:30:36;97531.23;;;-0.23;84.02
20228;BME280;12195;55.790;37.572;2024-01-15T08:33:11;97532.59;;;-0.16;83.96
20228;BME280;12195;55.790;37.572;2024-01-15T08:35:48;97522.98;;;-0.12;84.01
20228;BME280;12195;55.790;37.572;2024-01-15T08:38:26;97529.56;;;-0.07;84.31
20228;BME280;12195;55.790;37.572;2024-01-15T08:41:00;97534.38;;;0.01;84.56
20228;BME280;12195;55.790;37.572;2024-01-15T08:43:33;97535.06;;;0.04;84.48
20228;BME280;12195;55.790;37.572;2024-01-15T08:46:08;97538.42;;;0.07;84.36
20228;BME280;12195;55.790;37.572;2024-01-15T08:48:42;97533.40;;;0.03;84.45
20228;BME280;12195;55.790;37.572;2024-01-15T08:51:15;97535.13;;;0.03;84.30
20228;BME280;12195;55.790;37.572;2024-01-15T08:53:49;97535.59;;;0.11;84.33
20228;BME280;12195;55.790;37.572;2024-01-15T08:56:23;97533.60;;;-0.01;84.11
20228;BME280;12195;55.790;37.572;2024-01-15T08:58:57;97531.87;;;-0.01;84.25
20228;BME280;12195;55.790;37.572;2024-01-15T09:01:30;97536.42;;;-0.06;84.28
20228;BME280;12195;55.790;37.572;2024-01-15T09:04:04;97535.51;;;-0.05;84.32
20228;BME280;12195;55.790;37.572;2024-01-15T09:06:40;97530.48;;;-0.08;84.43
20228;BME280;12195;55.790;37.572;2024-01-15T09:09:15;97537.17;;;-0.04;84.59
20228;BME280;12195;55.790;37.572;2024-01-15T09:11:49;97532.15;;;-0.07;84.52
20228;BME280;12195;55.790;37.572;2024-01-15T09:14:23;97527.09;;;-0.08;84.50
20228;BME280;12195;55.790;37.572;2024-01-15T09:17:03;97529.67;;;-0.08;84.54
20228;BME280;12195;55.790;37.572;2024-01-15T09:19:36;97521.22;;;-0.12;84.56
20228;BME280;12195;55.790;37.572;2024-01-15T09:22:13;97528.89;;;-0.10;84.60
20228;BME280;12195;55.790;37.572;2024-01-15T09:24:48;97526.31;;;-0.10;84.60
20228;BME280;12195;55.790;37.572;2024-01-15T09:27:22;97527.16;;;-0.10;84.60
20228;BME280;12195;55.790;37.572;2024-01-15T09:29:57;97523.36;;;-0.03;84.74
20228;BME280;12195;55.790;37.572;2024-01-15T09:32:31;97515.55;;;-0.01;84.69
20228;BME280;12195;55.790;37.572;2024-01-15T09:35:06;97519.66;;;0.03;84.59
20228;BME280;12195;55.790;37.572;2024-01-15T09:37:41;97517.92;;;0.03;84.55
20228;BME280;12195;55.790;37.572;2024-01-15T09:40:18;97520.37;;;0.07;84.59
20228;BME280;12195;55.790;37.572;2024-01-15T09:42:52;97522.84;;;0.08;84.65
20228;BME280;12195;55.790;37.572;2024-01-15T09:45:26;97524.75;;;0.04;84.67
20228;BME280;12195;55.790;37.572;2024-01-15T09:47:59;97517.92;;;0.03;84.72
20228;BME280;12195;55.790;37.572;2024-01-15T09:50:33;97517.15;;;0.01;84.66
20228;BME280;12195;55.790;37.572;2024-01-15T09:53:06;97518.13;;;-0.01;84.68
20228;BME280;12195;55.790;37.572;2024-01-15T09:55:40;97524.98;;;0.00;84.84
20228;BME280;12195;55.790;37.572;2024-01-15T09:58:13;97528.69;;;-0.06;84.73
20228;BME280;12195;55.790;37.572;2024-01-15T10:00:48;97526.99;;;-0.07;84.78
20228;BME280;12195;55.790;37.572;2024-01-15T10:03:21;97524.41;;;-0.07;84.85
20228;BME280;12195;55.790;37.572;2024-01-15T10:05:56;97527.84;;;-0.06;84.91
20228;BME280;12195;55.790;37.572;2024-01-15T10:08:32;97528.52;;;-0.03;85.05
20228;BME280;12195;55.790;37.572;2024-01-15T10:11:06;97531.09;;;-0.03;84.99
20228;BME280;12195;55.790;37.572;2024-01-15T10:13:40;97528.69;;;-0.06;84.96
20228;BME280;12195;55.790;37.572;2024-01-15T10:16:14;97530.28;;;-0.03;84.87
20228;BME280;12195;55.790;37.572;2024-01-15T10:18:49;97537.03;;;-0.01;84.88
20228;BME280;12195;55.790;37.572;2024-01-15T10:21:22;97538.70;;;0.00;84.85
20228;BME280;12195;55.790;37.572;2024-01-15T10:23:54;97527.93;;;0.09;85.15
20228;BME280;12195;55.790;37.572;2024-01-15T10:26:27;97529.56;;;-0.07;84.75
20228;BME280;12195;55.790;37.572;2024-01-15T10:29:00;97528.96;;;-0.12;84.85
20228;BME280;12195;55.790;37.572;2024-01-15T10:31:33;97526.45;;;-0.13;84.89
20228;BME280;12195;55.790;37.572;2024-01-15T10:34:12;97531.67;;;-0.15;84.98
20228;BME280;12195;55.790;37.572;2024-01-15T10:36:47;97531.61;;;-0.13;85.00
20228;BME280;12195;55.790;37.572;2024-01-15T10:39:26;97534.25;;;-0.15;85.10
20228;BME280;12195;55.790;37.572;2024-01-15T10:41:59;97523.06;;;-0.14;85.10
20228;BME280;12195;55.790;37.572;2024-01-15T10:44:32;97527.30;;;-0.13;85.19
20228;BME280;12195;55.790;37.572;2024-01-15T10:47:06;97527.16;;;-0.10;85.24
20228;BME280;12195;55.790;37.572;2024-01-15T10:49:39;97530.63;;;-0.11;85.20
20228;BME280;12195;55.790;37.572;2024-01-15T10:52:13;97537.50;;;0.08;85.52
20228;BME280;12195;55.790;37.572;2024-01-15T10:54:46;97532.31;;;-0.10;85.05
20228;BME280;12195;55.790;37.572;2024-01-15T10:57:21;97525.59;;;0.05;85.26
20228;BME280;12195;55.790;37.572;2024-01-15T10:59:55;97527.98;;;-0.09;84.88
20228;BME280;12195;55.790;37.572;2024-01-15T11:02:36;97524.72;;;-0.13;84.93
20228;BME280;12195;55.790;37.572;2024-01-15T11:05:10;97522.27;;;-0.16;84.99
20228;BME280;12195;55.790;37.572;2024-01-15T11:07:44;97530.02;;;-0.16;85.12
20228;BME280;12195;55.790;37.572;2024-01-15T11:16:10;97522.52;;;-0.20;85.37
20228;BME280;12195;55.790;37.572;2024-01-15T11:21:32;97528.48;;;-0.20;85.42
20228;BME280;12195;55.790;37.572;2024-01-15T11:24:06;97531.84;;;-0.18;85.52
20228;BME280;12195;55.790;37.572;2024-01-15T11:26:46;97519.02;;;-0.19;85.49
20228;BME280;12195;55.790;37.572;2024-01-15T11:29:29;97515.66;;;-0.21;85.52
20228;BME280;12195;55.790;37.572;2024-01-15T11:32:08;97520.00;;;-0.22;85.60
20228;BME280;12195;55.790;37.572;2024-01-15T11:34:55;97516.44;;;-0.19;85.68
20228;BME280;12195;55.790;37.572;2024-01-15T11:40:38;97509.52;;;-0.19;85.72
20228;BME280;12195;55.790;37.572;2024-01-15T11:43:11;97506.13;;;-0.19;85.76
20228;BME280;12195;55.790;37.572;2024-01-15T11:45:49;97506.94;;;-0.19;85.75
20228;BME280;12195;55.790;37.572;2024-01-15T11:48:23;97513.02;;;-0.20;85.73
20228;BME280;12195;55.790;37.572;2024-01-15T11:51:01;97514.68;;;-0.19;85.76
20228;BME280;12195;55.790;37.572;2024-01-15T11:53:43;97511.89;;;-0.14;85.89
20228;BME280;12195;55.790;37.572;2024-01-15T11:56:17;97507.80;;;-0.18;85.86
20228;BME280;12195;55.790;37.572;2024-01-15T11:58:51;97513.73;;;-0.16;85.91
20228;BME280;12195;55.790;37.572;2024-01-15T12:01:25;97512.09;;;-0.19;85.87
20228;BME280;12195;55.790;37.572;2024-01-15T12:03:59;97512.09;;;-0.19;85.89
20228;BME280;12195;55.790;37.572;2024-01-15T12:06:36;97519.09;;;-0.21;85.86
20228;BME280;12195;55.790;37.572;2024-01-15T12:09:10;97517.25;;;-0.19;85.91
20228;BME280;12195;55.790;37.572;2024-01-15T12:11:47;97524.86;;;-0.16;85.97
20228;BME280;12195;55.790;37.572;2024-01-15T12:14:20;97523.19;;;-0.17;86.03
20228;BME280;12195;55.790;37.572;2024-01-15T12:16:52;97503.63;;;-0.21;86.05
20228;BME280;12195;55.790;37.572;2024-01-15T12:19:26;97503.63;;;-0.21;86.05
20228;BME280;12195;55.790;37.572;2024-01-15T12:22:01;97513.93;;;-0.21;86.10
20228;BME280;12195;55.790;37.572;2024-01-15T12:24:34;97514.00;;;-0.22;86.11
20228;BME280;12195;55.790;37.572;2024-01-15T12:27:08;97521.46;;;-0.16;86.17
20228;BME280;12195;55.790;37.572;2024-01-15T12:29:41;97514.91;;;-0.23;86.08
20228;BME280;12195;55.790;37.572;2024-01-15T12:32:15;97508.91;;;-0.24;86.13
20228;BME280;12195;55.790;37.572;2024-01-15T12:34:49;97512.54;;;-0.28;86.05
20228;BME280;12195;55.790;37.572;2024-01-15T12:37:24;97509.96;;;-0.28;86.10
20228;BME280;12195;55.790;37.572;2024-01-15T12:39:59;97505.72;;;-0.29;86.16
20228;BME280;12195;55.790;37.572;2024-01-15T12:42:39;97510.74;;;-0.26;86.22
20228;BME280;12195;55.790;37.572;2024-01-15T12:45:08;97523.70;;;-0.27;86.22
20228;BME280;12195;55.790;37.572;2024-01-15T12:47:40;97509.89;;;-0.26;86.26
20228;BME280;12195;55.790;37.572;2024-01-15T12:50:13;97511.89;;;-0.14;86.58
20228;BME280;12195;55.790;37.572;2024-01-15T12:52:48;97511.55;;;-0.25;86.17
20228;BME280;12195;55.790;37.572;2024-01-15T12:55:21;97515.97;;;-0.27;86.10
20228;BME280;12195;55.790;37.572;2024-01-15T12:57:54;97508.30;;;-0.29;86.16
20228;BME280;12195;55.790;37.572;2024-01-15T13:00:27;97519.66;;;-0.33;86.16
20228;BME280;12195;55.790;37.572;2024-01-15T13:03:00;97512.84;;;-0.34;86.25
20228;BME280;12195;55.790;37.572;2024-01-15T13:05:35;97516.33;;;-0.35;86.34
20228;BME280;12195;55.790;37.572;2024-01-15T13:08:08;97523.28;;;-0.37;86.30
20228;BME280;12195;55.790;37.572;2024-01-15T13:10:41;97517.15;;;-0.34;86.43
20228;BME280;12195;55.790;37.572;2024-01-15T13:13:15;97516.41;;;-0.36;86.41
20228;BME280;12195;55.790;37.572;2024-01-15T13:15:48;97523.41;;;-0.40;86.39
20228;BME280;12195;55.790;37.572;2024-01-15T13:18:22;97528.57;;;-0.40;86.42
20228;BME280;12195;55.790;37.572;2024-01-15T13:20:55;97530.17;;;-0.37;86.46
20228;BME280;12195;55.790;37.572;2024-01-15T13:23:28;97521.75;;;-0.41;86.40
20228;BME280;12195;55.790;37.572;2024-01-15T13:26:01;97522.67;;;-0.42;86.42
20228;BME280;12195;55.790;37.572;2024-01-15T13:28:35;97520.09;;;-0.42;86.44
20228;BME280;12195;55.790;37.572;2024-01-15T13:31:09;97530.27;;;-0.39;86.46
20228;BME280;12195;55.790;37.572;2024-01-15T13:33:42;97528.64;;;-0.41;86.47
20228;BME280;12195;55.790;37.572;2024-01-15T13:36:15;97531.80;;;-0.35;86.56